Time;durP1;ratioP1;P1;durP2;ratioP2;P2;SDS_P1;SDS_P2;PMS_P1;PMS_P2;Temp;Humidity;BMP_temperature;BMP_pressure;BME280_temperature;BME280_humidity;BME280_pressure;Samples;Min_cycle;Max_cycle;Signal;HPM_P1;HPM_P2
2022/01/14 00:01:58;;;;;;;0.10;0.10;;;;;;;;;;5068022;28;20109;-64
2022/01/14 00:04:24;;;;;;;0.40;0.40;;;;;;;;;;5068490;28;20121;-62
2022/01/14 00:06:50;;;;;;;0.10;0.10;;;;;;;;;;5052619;28;20486;-60
2022/01/14 00:09:17;;;;;;;1.20;1.20;;;;;;;;;;5071277;28;20024;-61
2022/01/14 00:11:48;;;;;;;0.10;0.10;;;;;;;;;;5053229;28;20028;-61
2022/01/14 00:16:43;;;;;;;0.10;0.10;;;;;;;;;;5067301;28;20509;-61
2022/01/14 00:19:09;;;;;;;0.10;0.10;;;;;;;;;;5053783;28;20524;-59
2022/01/14 00:21:37;;;;;;;0.10;0.10;;;;;;;;;;5090363;28;20081;-60
2022/01/14 00:24:09;;;;;;;0.10;0.10;;;;;;;;;;5057395;28;20039;-60
2022/01/14 00:32:10;;;;;;;0.10;0.10;;;;;;;;;;5085897;28;20120;-61
2022/01/14 00:34:35;;;;;;;0.85;0.85;;;;;;;;;;5057341;28;20063;-60
2022/01/14 00:37:01;;;;;;;0.10;0.10;;;;;;;;;;5073674;28;20450;-60
2022/01/14 00:39:27;;;;;;;0.20;0.20;;;;;;;;;;5059345;28;20020;-60
2022/01/14 00:41:52;;;;;;;0.10;0.10;;;;;;;;;;5094478;28;20449;-61
2022/01/14 00:44:18;;;;;;;0.10;0.10;;;;;;;;;;5077450;28;20020;-60
2022/01/14 00:46:44;;;;;;;0.52;0.52;;;;;;;;;;5095443;28;20472;-60
2022/01/14 00:49:10;;;;;;;0.10;0.10;;;;;;;;;;5077335;28;20024;-60
2022/01/14 00:51:36;;;;;;;0.20;0.20;;;;;;;;;;5060654;28;20036;-60
2022/01/14 00:54:02;;;;;;;12.45;3.83;;;;;;;;;;5094999;28;20540;-60
2022/01/14 00:56:34;;;;;;;0.20;0.20;;;;;;;;;;5076917;28;20024;-60
2022/01/14 00:59:15;;;;;;;0.10;0.10;;;;;;;;;;5060288;28;20035;-59
2022/01/14 01:01:42;;;;;;;0.20;0.20;;;;;;;;;;5060656;28;20093;-60
2022/01/14 01:04:08;;;;;;;0.22;0.22;;;;;;;;;;5060467;28;20031;-60
2022/01/14 01:06:34;;;;;;;0.10;0.10;;;;;;;;;;5094995;28;20054;-60
2022/01/14 01:09:00;;;;;;;0.40;0.40;;;;;;;;;;5076951;28;20588;-60
2022/01/14 01:11:31;;;;;;;0.20;0.20;;;;;;;;;;5060097;28;20088;-60
2022/01/14 01:14:09;;;;;;;0.55;0.55;;;;;;;;;;5077010;28;20483;-61
2022/01/14 01:16:35;;;;;;;0.75;0.75;;;;;;;;;;5076999;28;20391;-60
2022/01/14 01:19:01;;;;;;;0.20;0.20;;;;;;;;;;5076715;28;20050;-61
2022/01/14 01:21:26;;;;;;;0.10;0.10;;;;;;;;;;5094904;28;20113;-60
2022/01/14 01:23:52;;;;;;;2.70;2.47;;;;;;;;;;5076313;28;20135;-61
2022/01/14 01:26:26;;;;;;;0.77;0.77;;;;;;;;;;5095141;28;20086;-60
2022/01/14 01:29:02;;;;;;;0.17;0.17;;;;;;;;;;5076956;28;20118;-61
2022/01/14 01:31:40;;;;;;;0.10;0.10;;;;;;;;;;5059893;28;20034;-61
2022/01/14 01:34:05;;;;;;;0.10;0.10;;;;;;;;;;5059741;28;20032;-61
2022/01/14 01:36:31;;;;;;;0.10;0.10;;;;;;;;;;5076665;28;20095;-60
2022/01/14 01:38:57;;;;;;;0.10;0.10;;;;;;;;;;5094645;28;20127;-60
2022/01/14 01:41:22;;;;;;;0.10;0.10;;;;;;;;;;5094583;28;20027;-61
2022/01/14 01:43:53;;;;;;;0.10;0.10;;;;;;;;;;5094543;28;20119;-60
2022/01/14 01:46:20;;;;;;;0.13;0.13;;;;;;;;;;5076245;28;20070;-60
2022/01/14 01:48:47;;;;;;;2.70;2.47;;;;;;;;;;5075928;28;20031;-60
2022/01/14 01:51:13;;;;;;;0.10;0.10;;;;;;;;;;5059560;28;20047;-60
2022/01/14 01:53:39;;;;;;;1.70;1.67;;;;;;;;;;5094478;28;20464;-62
2022/01/14 01:56:05;;;;;;;0.10;0.10;;;;;;;;;;5094303;28;20028;-60
2022/01/14 01:58:30;;;;;;;0.15;0.15;;;;;;;;;;5094250;28;20115;-61
2022/01/14 02:00:56;;;;;;;1.10;1.10;;;;;;;;;;5094302;28;20071;-60
2022/01/14 02:03:26;;;;;;;0.30;0.30;;;;;;;;;;5076701;28;20463;-60
2022/01/14 02:05:51;;;;;;;0.10;0.10;;;;;;;;;;5075980;28;20070;-61
2022/01/14 02:08:17;;;;;;;0.20;0.20;;;;;;;;;;5094042;28;20040;-60
2022/01/14 02:10:42;;;;;;;0.10;0.10;;;;;;;;;;5076035;28;20027;-60
2022/01/14 02:13:09;;;;;;;0.10;0.10;;;;;;;;;;5076112;28;20032;-60
2022/01/14 02:18:33;;;;;;;0.20;0.20;;;;;;;;;;5093958;28;20137;-60
2022/01/14 02:23:48;;;;;;;0.20;0.20;;;;;;;;;;5094252;28;20118;-61
2022/01/14 02:26:16;;;;;;;0.10;0.10;;;;;;;;;;5058954;28;20032;-61
2022/01/14 02:28:42;;;;;;;0.17;0.17;;;;;;;;;;5093553;28;20032;-60
2022/01/14 02:31:07;;;;;;;0.10;0.10;;;;;;;;;;5075803;28;20089;-60
2022/01/14 02:33:33;;;;;;;0.20;0.20;;;;;;;;;;5093737;28;20475;-61
2022/01/14 02:35:59;;;;;;;0.30;0.30;;;;;;;;;;5093856;28;20546;-61
2022/01/14 02:38:25;;;;;;;0.13;0.13;;;;;;;;;;5093924;28;20097;-60
2022/01/14 02:40:50;;;;;;;0.10;0.10;;;;;;;;;;5075361;28;20062;-59
2022/01/14 02:43:17;;;;;;;0.20;0.20;;;;;;;;;;5093462;28;20468;-61
2022/01/14 02:45:50;;;;;;;0.10;0.10;;;;;;;;;;5075434;28;20043;-60
2022/01/14 02:48:16;;;;;;;0.10;0.10;;;;;;;;;;5059016;28;20471;-60
2022/01/14 02:50:54;;;;;;;0.10;0.10;;;;;;;;;;5093534;28;20027;-61
2022/01/14 02:53:42;;;;;;;0.10;0.10;;;;;;;;;;5093572;28;20032;-61
2022/01/14 02:56:12;;;;;;;0.20;0.20;;;;;;;;;;5058560;28;20051;-61
2022/01/14 02:58:39;;;;;;;0.10;0.10;;;;;;;;;;5093354;28;20082;-61
2022/01/14 03:01:07;;;;;;;0.10;0.10;;;;;;;;;;5092606;28;20115;-61
2022/01/14 03:03:33;;;;;;;0.10;0.10;;;;;;;;;;5075621;28;20036;-62
2022/01/14 03:06:00;;;;;;;0.77;0.77;;;;;;;;;;5074802;28;20085;-61
2022/01/14 03:08:25;;;;;;;0.10;0.10;;;;;;;;;;5074968;28;20044;-61
2022/01/14 03:11:20;;;;;;;0.20;0.20;;;;;;;;;;5075067;28;20419;-60
2022/01/14 03:13:46;;;;;;;0.45;0.45;;;;;;;;;;5045455;28;20044;-61
2022/01/14 03:16:12;;;;;;;0.20;0.20;;;;;;;;;;5075005;28;20039;-60
2022/01/14 03:18:49;;;;;;;0.10;0.10;;;;;;;;;;5074748;28;20486;-61
2022/01/14 03:21:24;;;;;;;0.10;0.10;;;;;;;;;;5093006;28;20365;-59
2022/01/14 03:24:02;;;;;;;0.10;0.10;;;;;;;;;;5075039;28;20046;-61
2022/01/14 03:26:28;;;;;;;0.10;0.10;;;;;;;;;;5074884;28;20399;-60
2022/01/14 03:28:54;;;;;;;0.20;0.20;;;;;;;;;;5092938;28;20028;-60
2022/01/14 03:31:19;;;;;;;0.10;0.10;;;;;;;;;;5074521;28;20036;-61
2022/01/14 03:33:44;;;;;;;3.83;1.65;;;;;;;;;;5092831;28;20036;-60
2022/01/14 03:36:10;;;;;;;0.20;0.20;;;;;;;;;;5092713;28;20036;-59
2022/01/14 03:38:36;;;;;;;0.20;0.20;;;;;;;;;;5092810;28;20024;-60
2022/01/14 03:41:02;;;;;;;0.20;0.20;;;;;;;;;;5041199;28;20040;-60
2022/01/14 03:43:27;;;;;;;0.13;0.13;;;;;;;;;;5074551;28;20105;-60
2022/01/14 03:45:53;;;;;;;0.20;0.20;;;;;;;;;;5092516;28;20036;-61
2022/01/14 03:48:19;;;;;;;0.10;0.10;;;;;;;;;;5092547;28;20016;-60
2022/01/14 03:50:45;;;;;;;0.13;0.13;;;;;;;;;;5092749;28;20036;-60
2022/01/14 03:53:11;;;;;;;0.10;0.10;;;;;;;;;;5092866;28;20451;-60
2022/01/14 03:55:41;;;;;;;0.10;0.10;;;;;;;;;;5057878;28;20039;-60
2022/01/14 03:58:08;;;;;;;0.20;0.20;;;;;;;;;;5057931;28;20164;-61
2022/01/14 04:00:34;;;;;;;0.10;0.10;;;;;;;;;;5057256;28;20073;-61
2022/01/14 04:03:00;;;;;;;0.10;0.10;;;;;;;;;;5063262;28;20052;-60
2022/01/14 04:05:25;;;;;;;0.20;0.20;;;;;;;;;;5050348;28;20060;-61
2022/01/14 04:07:51;;;;;;;0.20;0.20;;;;;;;;;;5068228;28;20369;-61
2022/01/14 04:10:18;;;;;;;0.20;0.20;;;;;;;;;;5050282;28;21082;-61
2022/01/14 04:12:52;;;;;;;1.27;1.23;;;;;;;;;;5034414;28;20029;-61
2022/01/14 04:18:03;;;;;;;0.10;0.10;;;;;;;;;;5072054;28;20071;-62
2022/01/14 04:20:29;;;;;;;0.20;0.20;;;;;;;;;;5054014;28;20040;-60
2022/01/14 04:22:54;;;;;;;0.10;0.10;;;;;;;;;;5071670;28;20051;-61
2022/01/14 04:25:20;;;;;;;0.15;0.15;;;;;;;;;;5071717;28;20471;-61
2022/01/14 04:27:46;;;;;;;0.20;0.20;;;;;;;;;;5071434;28;20150;-62
2022/01/14 04:30:12;;;;;;;0.15;0.15;;;;;;;;;;5054134;28;20040;-62
2022/01/14 04:32:37;;;;;;;0.20;0.20;;;;;;;;;;5036533;28;20021;-61
2022/01/14 04:35:03;;;;;;;0.10;0.10;;;;;;;;;;5053529;28;20046;-63
2022/01/14 04:37:29;;;;;;;0.20;0.20;;;;;;;;;;5071742;28;20020;-61
2022/01/14 04:39:54;;;;;;;0.10;0.10;;;;;;;;;;5036595;28;20111;-61
2022/01/14 04:42:20;;;;;;;0.20;0.20;;;;;;;;;;5071125;28;20115;-60
2022/01/14 04:44:45;;;;;;;0.20;0.20;;;;;;;;;;5052833;28;20495;-64
2022/01/14 04:47:29;;;;;;;0.10;0.10;;;;;;;;;;5071636;28;20081;-64
2022/01/14 04:49:54;;;;;;;0.20;0.20;;;;;;;;;;5053403;28;20032;-62
2022/01/14 04:52:20;;;;;;;0.10;0.10;;;;;;;;;;5071199;28;20035;-61
2022/01/14 04:54:46;;;;;;;1.02;1.02;;;;;;;;;;5053450;28;20119;-63
2022/01/14 04:57:11;;;;;;;0.10;0.10;;;;;;;;;;5071014;28;20052;-63
2022/01/14 04:59:37;;;;;;;0.20;0.20;;;;;;;;;;5053479;28;20043;-59
2022/01/14 05:02:03;;;;;;;0.13;0.13;;;;;;;;;;5070999;28;20437;-61
2022/01/14 05:04:29;;;;;;;0.10;0.10;;;;;;;;;;5071092;28;20036;-61
2022/01/14 05:07:00;;;;;;;0.10;0.10;;;;;;;;;;5036033;28;20503;-61
2022/01/14 05:09:32;;;;;;;0.20;0.20;;;;;;;;;;5052986;28;20032;-61
2022/01/14 05:12:05;;;;;;;0.20;0.20;;;;;;;;;;5052929;28;20079;-61
2022/01/14 05:14:31;;;;;;;0.20;0.20;;;;;;;;;;5052839;28;20061;-61
2022/01/14 05:16:57;;;;;;;1.65;1.20;;;;;;;;;;5071012;28;20186;-61
2022/01/14 05:19:22;;;;;;;0.10;0.10;;;;;;;;;;5070941;28;20501;-62
2022/01/14 05:21:48;;;;;;;0.20;0.20;;;;;;;;;;5071202;28;20774;-61
2022/01/14 05:24:14;;;;;;;0.17;0.17;;;;;;;;;;5070343;28;20428;-60
2022/01/14 05:26:39;;;;;;;0.10;0.10;;;;;;;;;;5035630;28;20036;-63
2022/01/14 05:29:05;;;;;;;0.10;0.10;;;;;;;;;;5071159;28;20059;-61
2022/01/14 05:31:44;;;;;;;0.10;0.10;;;;;;;;;;5050982;28;20472;-61
2022/01/14 05:34:10;;;;;;;0.10;0.10;;;;;;;;;;5069632;28;20513;-61
2022/01/14 05:36:35;;;;;;;0.13;0.13;;;;;;;;;;5051098;28;20059;-62
2022/01/14 05:39:01;;;;;;;0.20;0.20;;;;;;;;;;5068481;28;20032;-63
2022/01/14 05:41:26;;;;;;;0.30;0.30;;;;;;;;;;5068970;28;20107;-61
2022/01/14 05:43:52;;;;;;;0.20;0.20;;;;;;;;;;5050379;28;20029;-62
2022/01/14 05:46:17;;;;;;;0.20;0.20;;;;;;;;;;5050517;28;20598;-62
2022/01/14 05:48:43;;;;;;;0.10;0.10;;;;;;;;;;5050718;28;20051;-62
2022/01/14 05:51:08;;;;;;;0.20;0.20;;;;;;;;;;5050991;28;20534;-61
2022/01/14 05:53:34;;;;;;;0.10;0.10;;;;;;;;;;5051931;28;20131;-61
2022/01/14 05:55:59;;;;;;;0.15;0.15;;;;;;;;;;5070335;28;20438;-60
2022/01/14 05:58:25;;;;;;;0.20;0.20;;;;;;;;;;5052022;28;20476;-61
2022/01/14 06:00:50;;;;;;;0.10;0.10;;;;;;;;;;5070317;28;20040;-61
2022/01/14 06:03:16;;;;;;;0.10;0.10;;;;;;;;;;5052168;28;20476;-61
2022/01/14 06:05:41;;;;;;;0.20;0.20;;;;;;;;;;5052175;28;20033;-63
2022/01/14 06:08:07;;;;;;;0.10;0.10;;;;;;;;;;5069884;28;20067;-60
2022/01/14 06:10:32;;;;;;;0.10;0.10;;;;;;;;;;5070248;28;20036;-62
2022/01/14 06:12:58;;;;;;;0.20;0.20;;;;;;;;;;5070320;28;20029;-60
2022/01/14 06:15:23;;;;;;;0.10;0.10;;;;;;;;;;5051948;28;20029;-59
2022/01/14 06:17:49;;;;;;;0.20;0.20;;;;;;;;;;5052103;28;20094;-65
2022/01/14 06:20:14;;;;;;;0.50;0.50;;;;;;;;;;5052249;28;20029;-61
2022/01/14 06:22:40;;;;;;;0.20;0.20;;;;;;;;;;5051578;28;20037;-62
2022/01/14 06:25:06;;;;;;;0.10;0.10;;;;;;;;;;5051672;28;20026;-61
2022/01/14 06:27:32;;;;;;;0.10;0.10;;;;;;;;;;5034966;28;20476;-61
2022/01/14 06:29:59;;;;;;;0.20;0.20;;;;;;;;;;5052095;28;20488;-61
2022/01/14 06:32:24;;;;;;;0.15;0.15;;;;;;;;;;5069925;28;20537;-62
2022/01/14 06:34:49;;;;;;;0.10;0.10;;;;;;;;;;5050790;28;20032;-62
2022/01/14 06:37:15;;;;;;;0.25;0.25;;;;;;;;;;5069097;28;20119;-62
2022/01/14 06:39:41;;;;;;;0.10;0.10;;;;;;;;;;5034952;28;20503;-61
2022/01/14 06:42:06;;;;;;;0.10;0.10;;;;;;;;;;5069595;28;20392;-64
2022/01/14 06:44:32;;;;;;;0.10;0.10;;;;;;;;;;5069157;28;20387;-65
2022/01/14 06:46:57;;;;;;;0.10;0.10;;;;;;;;;;5051644;28;20028;-61
2022/01/14 06:49:23;;;;;;;0.20;0.20;;;;;;;;;;5077984;28;20043;-61
2022/01/14 06:51:48;;;;;;;0.10;0.10;;;;;;;;;;5071459;28;20465;-65
2022/01/14 06:54:14;;;;;;;0.10;0.10;;;;;;;;;;5071436;28;20032;-60
2022/01/14 06:56:39;;;;;;;0.10;0.10;;;;;;;;;;5070724;28;20788;-64
2022/01/14 06:59:06;;;;;;;0.10;0.10;;;;;;;;;;5071264;28;20024;-61
2022/01/14 07:01:31;;;;;;;0.10;0.10;;;;;;;;;;5071623;28;20399;-61
2022/01/14 07:03:57;;;;;;;0.10;0.10;;;;;;;;;;5054817;28;20024;-60
2022/01/14 07:06:22;;;;;;;0.10;0.10;;;;;;;;;;5070598;28;20493;-61
2022/01/14 07:08:48;;;;;;;0.20;0.20;;;;;;;;;;5088675;28;20032;-61
2022/01/14 07:11:14;;;;;;;0.10;0.10;;;;;;;;;;5054385;28;20046;-62
2022/01/14 07:13:39;;;;;;;0.10;0.10;;;;;;;;;;5089388;28;20035;-63
2022/01/14 07:16:05;;;;;;;0.10;0.10;;;;;;;;;;5088129;28;20038;-61
2022/01/14 07:18:30;;;;;;;0.10;0.10;;;;;;;;;;5070758;28;20105;-63
2022/01/14 07:20:56;;;;;;;0.10;0.10;;;;;;;;;;5088976;28;20140;-76
2022/01/14 07:23:21;;;;;;;0.10;0.10;;;;;;;;;;5089060;28;20490;-75
2022/01/14 07:25:47;;;;;;;0.10;0.10;;;;;;;;;;5053840;28;20071;-77
2022/01/14 07:28:13;;;;;;;0.10;0.10;;;;;;;;;;5088844;28;20059;-77
2022/01/14 07:30:38;;;;;;;0.10;0.10;;;;;;;;;;5087464;28;20047;-77
2022/01/14 07:33:04;;;;;;;0.22;0.22;;;;;;;;;;5079462;28;20035;-71
2022/01/14 07:35:29;;;;;;;0.10;0.10;;;;;;;;;;5047187;28;20068;-75
2022/01/14 07:37:55;;;;;;;0.17;0.17;;;;;;;;;;5064400;28;20032;-75
2022/01/14 07:40:20;;;;;;;0.20;0.20;;;;;;;;;;5066120;28;20032;-74
2022/01/14 07:42:45;;;;;;;0.20;0.20;;;;;;;;;;5066219;28;20052;-75
2022/01/14 07:45:11;;;;;;;1.60;1.50;;;;;;;;;;5048390;28;20070;-75
2022/01/14 07:47:37;;;;;;;0.40;0.40;;;;;;;;;;5066041;28;20491;-76
2022/01/14 07:50:02;;;;;;;0.20;0.20;;;;;;;;;;5066509;28;20027;-74
2022/01/14 07:52:28;;;;;;;0.20;0.20;;;;;;;;;;5065073;28;20044;-75
2022/01/14 07:54:53;;;;;;;0.20;0.20;;;;;;;;;;5064224;28;20073;-72
2022/01/14 07:57:19;;;;;;;0.20;0.20;;;;;;;;;;5064342;28;20469;-74
2022/01/14 07:59:44;;;;;;;0.22;0.22;;;;;;;;;;5065851;28;20032;-71
2022/01/14 08:02:10;;;;;;;0.20;0.20;;;;;;;;;;5066459;28;20128;-74
2022/01/14 08:04:37;;;;;;;2.15;2.05;;;;;;;;;;5066152;28;20403;-72
2022/01/14 08:07:09;;;;;;;0.20;0.20;;;;;;;;;;5032986;28;20531;-75
2022/01/14 08:09:36;;;;;;;0.10;0.10;;;;;;;;;;5050625;28;20054;-71
2022/01/14 08:12:02;;;;;;;0.55;0.55;;;;;;;;;;5068280;28;20038;-74
2022/01/14 08:14:27;;;;;;;0.20;0.20;;;;;;;;;;5033856;28;20086;-73
2022/01/14 08:16:53;;;;;;;0.20;0.20;;;;;;;;;;5050007;28;20029;-74
2022/01/14 08:19:18;;;;;;;3.42;3.13;;;;;;;;;;5070799;28;20034;-73
2022/01/14 08:21:44;;;;;;;0.22;0.22;;;;;;;;;;5050182;28;20025;-72
2022/01/14 08:24:09;;;;;;;3.63;3.42;;;;;;;;;;5067869;28;20032;-73
2022/01/14 08:26:35;;;;;;;0.20;0.20;;;;;;;;;;5067828;28;20545;-73
2022/01/14 08:29:00;;;;;;;3.78;3.50;;;;;;;;;;5071715;28;20036;-73
2022/01/14 08:31:25;;;;;;;1.85;1.75;;;;;;;;;;5087871;28;20111;-74
2022/01/14 08:33:51;;;;;;;0.20;0.20;;;;;;;;;;5088709;28;20028;-74
2022/01/14 08:36:16;;;;;;;0.30;0.30;;;;;;;;;;5087981;28;20032;-73
2022/01/14 08:38:42;;;;;;;3.55;3.40;;;;;;;;;;5087684;28;20087;-73
2022/01/14 08:41:07;;;;;;;0.52;0.52;;;;;;;;;;5069837;28;20077;-73
2022/01/14 08:43:33;;;;;;;0.30;0.30;;;;;;;;;;5087885;28;20089;-72
2022/01/14 08:46:01;;;;;;;0.25;0.25;;;;;;;;;;5087726;28;20059;-73
2022/01/14 08:48:27;;;;;;;0.30;0.30;;;;;;;;;;5087769;28;20483;-73
2022/01/14 08:50:52;;;;;;;0.30;0.30;;;;;;;;;;5069588;28;20051;-73
2022/01/14 08:53:18;;;;;;;0.30;0.30;;;;;;;;;;5087907;28;20073;-73
2022/01/14 08:55:44;;;;;;;0.30;0.30;;;;;;;;;;5053156;28;20646;-73
2022/01/14 08:58:09;;;;;;;1.00;1.00;;;;;;;;;;5087754;28;20123;-73
2022/01/14 09:00:35;;;;;;;0.22;0.22;;;;;;;;;;5090700;28;20024;-72
2022/01/14 09:03:01;;;;;;;0.20;0.20;;;;;;;;;;5071033;28;20044;-73
2022/01/14 09:05:26;;;;;;;6.70;1.73;;;;;;;;;;5073174;28;20032;-73
2022/01/14 09:07:52;;;;;;;0.30;0.30;;;;;;;;;;5090736;28;20032;-72
2022/01/14 09:10:18;;;;;;;0.60;0.57;;;;;;;;;;5091185;28;20105;-73
2022/01/14 09:12:43;;;;;;;0.60;0.60;;;;;;;;;;5090865;28;20119;-73
2022/01/14 09:15:09;;;;;;;0.22;0.22;;;;;;;;;;5091132;28;20107;-74
2022/01/14 09:17:35;;;;;;;6.72;6.32;;;;;;;;;;5052255;28;20036;-73
2022/01/14 09:20:03;;;;;;;3.53;2.05;;;;;;;;;;5090150;28;20032;-73
2022/01/14 09:22:31;;;;;;;0.30;0.30;;;;;;;;;;5071638;28;20403;-74
2022/01/14 09:24:58;;;;;;;0.38;0.38;;;;;;;;;;5069420;28;20399;-73
2022/01/14 09:27:23;;;;;;;0.77;0.77;;;;;;;;;;5078483;28;20029;-73
2022/01/14 09:29:49;;;;;;;2.33;2.13;;;;;;;;;;5076296;28;20093;-73
2022/01/14 09:32:14;;;;;;;0.30;0.30;;;;;;;;;;5090345;28;20467;-72
2022/01/14 09:34:40;;;;;;;1.35;1.05;;;;;;;;;;5090451;28;20035;-72
2022/01/14 09:37:05;;;;;;;0.40;0.40;;;;;;;;;;5090348;28;20032;-72
2022/01/14 09:39:32;;;;;;;0.30;0.30;;;;;;;;;;5053380;28;20115;-73
2022/01/14 09:41:58;;;;;;;0.32;0.32;;;;;;;;;;5070717;28;20403;-72
2022/01/14 09:44:24;;;;;;;4.85;3.22;;;;;;;;;;5068631;28;20028;-73
2022/01/14 09:46:50;;;;;;;0.70;0.70;;;;;;;;;;5068029;28;20187;-72
2022/01/14 09:49:16;;;;;;;0.40;0.40;;;;;;;;;;5068039;28;20451;-73
2022/01/14 09:51:42;;;;;;;0.60;0.60;;;;;;;;;;5033605;28;20478;-71
2022/01/14 09:54:10;;;;;;;0.30;0.30;;;;;;;;;;5033617;28;20024;-73
2022/01/14 09:56:38;;;;;;;0.40;0.40;;;;;;;;;;5050428;28;20059;-72
2022/01/14 09:59:04;;;;;;;0.30;0.30;;;;;;;;;;5067513;28;20021;-73
2022/01/14 10:01:36;;;;;;;0.57;0.57;;;;;;;;;;5070483;28;20533;-73
2022/01/14 10:04:02;;;;;;;0.30;0.30;;;;;;;;;;5069186;28;20042;-72
2022/01/14 10:06:43;;;;;;;0.35;0.35;;;;;;;;;;5086719;28;20032;-72
2022/01/14 10:09:22;;;;;;;0.40;0.40;;;;;;;;;;5087678;28;20063;-72
2022/01/14 10:11:59;;;;;;;0.50;0.50;;;;;;;;;;5087757;28;20028;-72
2022/01/14 10:14:25;;;;;;;0.40;0.40;;;;;;;;;;5059721;28;20044;-72
2022/01/14 10:16:56;;;;;;;0.30;0.30;;;;;;;;;;5085079;28;20404;-74
2022/01/14 10:19:27;;;;;;;1.25;1.25;;;;;;;;;;5051853;28;20051;-72
2022/01/14 10:21:53;;;;;;;0.30;0.30;;;;;;;;;;5067317;28;20059;-74
2022/01/14 10:24:19;;;;;;;0.50;0.50;;;;;;;;;;5033004;28;20033;-72
2022/01/14 10:26:49;;;;;;;11.90;6.15;;;;;;;;;;5048533;28;20481;-72
2022/01/14 10:29:15;;;;;;;;;;;;;;;;;;5033955;28;20032;-72
2022/01/14 10:31:43;;;;;;;0.30;0.30;;;;;;;;;;5069000;28;19962;-73
2022/01/14 10:34:10;;;;;;;0.85;0.85;;;;;;;;;;5034893;28;20034;-72
2022/01/14 10:36:35;;;;;;;0.63;0.63;;;;;;;;;;5050644;28;20437;-71
2022/01/14 10:39:17;;;;;;;0.40;0.40;;;;;;;;;;5068404;28;20059;-71
2022/01/14 10:41:43;;;;;;;0.30;0.30;;;;;;;;;;5051039;28;20519;-71
2022/01/14 10:44:24;;;;;;;0.35;0.35;;;;;;;;;;5068691;28;20120;-70
2022/01/14 10:47:08;;;;;;;0.30;0.30;;;;;;;;;;5050812;28;20048;-70
2022/01/14 10:49:34;;;;;;;0.40;0.40;;;;;;;;;;5068441;28;20032;-70
2022/01/14 10:52:10;;;;;;;0.63;0.63;;;;;;;;;;5069118;28;20503;-73
2022/01/14 10:54:47;;;;;;;0.30;0.30;;;;;;;;;;5060223;28;20101;-71
2022/01/14 10:57:17;;;;;;;0.65;0.65;;;;;;;;;;5069930;28;20491;-71
2022/01/14 10:59:43;;;;;;;0.30;0.30;;;;;;;;;;5070418;28;20028;-69
2022/01/14 11:02:27;;;;;;;0.40;0.40;;;;;;;;;;5070518;28;20032;-70
2022/01/14 11:05:08;;;;;;;0.60;0.60;;;;;;;;;;5086558;28;20081;-72
2022/01/14 11:07:34;;;;;;;0.30;0.30;;;;;;;;;;5088367;28;20032;-73
2022/01/14 11:10:02;;;;;;;0.30;0.30;;;;;;;;;;5088843;28;20056;-71
2022/01/14 11:12:29;;;;;;;0.20;0.20;;;;;;;;;;5088357;28;20059;-69
2022/01/14 11:14:55;;;;;;;0.20;0.20;;;;;;;;;;5070053;28;20106;-69
2022/01/14 11:17:20;;;;;;;0.30;0.30;;;;;;;;;;5086979;28;20115;-69
2022/01/14 11:19:47;;;;;;;0.30;0.30;;;;;;;;;;5088031;28;20402;-71
2022/01/14 11:24:57;;;;;;;0.52;0.52;;;;;;;;;;5088001;28;20629;-70
2022/01/14 11:27:23;;;;;;;0.68;0.65;;;;;;;;;;5088790;28;20379;-70
2022/01/14 11:29:51;;;;;;;0.47;0.47;;;;;;;;;;5088364;28;20047;-70
2022/01/14 11:32:17;;;;;;;1.85;1.40;;;;;;;;;;5087875;28;20043;-71
2022/01/14 11:34:43;;;;;;;0.38;0.38;;;;;;;;;;5069643;28;20031;-69
2022/01/14 11:37:13;;;;;;;0.30;0.30;;;;;;;;;;5058099;28;20077;-69
2022/01/14 11:39:39;;;;;;;1.73;1.38;;;;;;;;;;5033362;28;20059;-75
2022/01/14 11:42:08;;;;;;;1.20;1.10;;;;;;;;;;5049988;28;20068;-74
2022/01/14 11:44:43;;;;;;;0.40;0.40;;;;;;;;;;5067721;28;20036;-70
2022/01/14 11:47:21;;;;;;;0.52;0.52;;;;;;;;;;5033589;28;20036;-70
2022/01/14 11:49:47;;;;;;;0.30;0.30;;;;;;;;;;5068103;28;20032;-71
2022/01/14 11:52:12;;;;;;;0.30;0.30;;;;;;;;;;5069249;28;20430;-71
2022/01/14 11:54:39;;;;;;;0.38;0.38;;;;;;;;;;5088421;28;20123;-69
2022/01/14 11:57:05;;;;;;;0.47;0.47;;;;;;;;;;5053946;28;20047;-71
2022/01/14 11:59:31;;;;;;;0.82;0.82;;;;;;;;;;5053413;28;20036;-68
2022/01/14 12:01:57;;;;;;;1.33;1.17;;;;;;;;;;5069163;28;20484;-74
2022/01/14 12:04:42;;;;;;;2.08;1.58;;;;;;;;;;5087508;28;20047;-72
2022/01/14 12:07:08;;;;;;;0.60;0.60;;;;;;;;;;5070072;28;20123;-71
2022/01/14 12:09:53;;;;;;;0.40;0.40;;;;;;;;;;5088489;28;20108;-73
2022/01/14 12:12:31;;;;;;;0.65;0.65;;;;;;;;;;5087834;28;20031;-72
2022/01/14 12:15:00;;;;;;;1.42;0.82;;;;;;;;;;5053513;28;20135;-70
2022/01/14 12:17:32;;;;;;;0.85;0.57;;;;;;;;;;5053595;28;20027;-70
2022/01/14 12:20:06;;;;;;;4.20;1.48;;;;;;;;;;5088132;28;20036;-73
2022/01/14 12:22:31;;;;;;;0.80;0.80;;;;;;;;;;5053139;28;20070;-71
2022/01/14 12:24:58;;;;;;;6.00;1.25;;;;;;;;;;5087959;28;20032;-72
2022/01/14 12:27:24;;;;;;;0.45;0.45;;;;;;;;;;5088546;28;20052;-72
2022/01/14 12:29:59;;;;;;;3.50;1.38;;;;;;;;;;5088020;28;20021;-71
2022/01/14 12:32:32;;;;;;;1.13;0.90;;;;;;;;;;5085299;28;20391;-72
2022/01/14 12:34:59;;;;;;;0.95;0.57;;;;;;;;;;5054919;28;20017;-70
2022/01/14 12:37:28;;;;;;;5.88;1.20;;;;;;;;;;5082198;28;20037;-69
2022/01/14 12:39:54;;;;;;;;;;;;;;;;;;5071773;28;20029;-72
2022/01/14 12:42:20;;;;;;;1.67;0.93;;;;;;;;;;5071327;28;20388;-73
2022/01/14 12:44:47;;;;;;;2.10;0.73;;;;;;;;;;5062174;28;20266;-74
2022/01/14 12:47:20;;;;;;;0.60;0.38;;;;;;;;;;5053776;28;20063;-70
2022/01/14 12:49:45;;;;;;;1.88;1.08;;;;;;;;;;5034275;28;20127;-72
2022/01/14 12:52:16;;;;;;;5.80;1.52;;;;;;;;;;5069200;28;20115;-72
2022/01/14 12:54:48;;;;;;;0.13;0.13;;;;;;;;;;5050740;28;20025;-72
2022/01/14 12:57:15;;;;;;;0.13;0.13;;;;;;;;;;5050970;28;20041;-72
2022/01/14 12:59:45;;;;;;;2.05;1.08;;;;;;;;;;5050780;28;20025;-72
2022/01/14 13:02:17;;;;;;;0.20;0.20;;;;;;;;;;5050291;28;20453;-72
2022/01/14 13:04:42;;;;;;;0.75;0.40;;;;;;;;;;5088222;28;20084;-74
2022/01/14 13:07:08;;;;;;;0.60;0.60;;;;;;;;;;5083562;28;20089;-71
2022/01/14 13:09:38;;;;;;;4.15;1.20;;;;;;;;;;5089386;28;20512;-74
2022/01/14 13:12:03;;;;;;;1.55;0.88;;;;;;;;;;5071093;28;20036;-74
2022/01/14 13:14:32;;;;;;;3.00;1.20;;;;;;;;;;5089178;28;20032;-72
2022/01/14 13:17:00;;;;;;;0.37;0.33;;;;;;;;;;5068531;28;20032;-73
2022/01/14 13:19:33;;;;;;;0.20;0.20;;;;;;;;;;5071818;28;20047;-72
2022/01/14 13:21:59;;;;;;;1.13;0.95;;;;;;;;;;5070781;28;20024;-73
2022/01/14 13:24:26;;;;;;;0.88;0.70;;;;;;;;;;5088851;28;20034;-73
2022/01/14 13:27:01;;;;;;;2.60;1.45;;;;;;;;;;5088272;28;20516;-74
2022/01/14 13:29:26;;;;;;;0.88;0.75;;;;;;;;;;5053942;28;20032;-74
2022/01/14 13:31:52;;;;;;;1.73;1.08;;;;;;;;;;5070546;28;20032;-73
2022/01/14 13:34:18;;;;;;;0.43;0.35;;;;;;;;;;5083499;28;20056;-72
2022/01/14 13:36:43;;;;;;;1.65;0.95;;;;;;;;;;5070422;28;20166;-73
2022/01/14 13:39:09;;;;;;;2.35;1.05;;;;;;;;;;5071756;28;20454;-72
2022/01/14 13:41:35;;;;;;;1.35;0.73;;;;;;;;;;5089416;28;20308;-73
2022/01/14 13:44:15;;;;;;;2.50;1.30;;;;;;;;;;5088915;28;20028;-74
2022/01/14 13:46:55;;;;;;;0.77;0.65;;;;;;;;;;5090602;28;20051;-73
2022/01/14 13:49:21;;;;;;;2.28;1.27;;;;;;;;;;5090395;28;20069;-73
2022/01/14 13:52:09;;;;;;;1.63;0.82;;;;;;;;;;5055493;28;20072;-74
2022/01/14 13:54:35;;;;;;;2.60;0.75;;;;;;;;;;5051646;28;20036;-74
2022/01/14 13:57:14;;;;;;;0.47;0.40;;;;;;;;;;5067917;28;20054;-72
2022/01/14 13:59:40;;;;;;;4.32;1.98;;;;;;;;;;5089119;28;20056;-72
2022/01/14 14:02:07;;;;;;;1.60;1.08;;;;;;;;;;5088588;28;20050;-74
2022/01/14 14:04:40;;;;;;;2.05;1.17;;;;;;;;;;5071463;28;20040;-74
2022/01/14 14:07:11;;;;;;;0.20;0.20;;;;;;;;;;5072051;28;20040;-73
2022/01/14 14:09:52;;;;;;;0.63;0.57;;;;;;;;;;5072289;28;20403;-74
2022/01/14 14:18:00;;;;;;;6.93;1.02;;;;;;;;;;5072509;28;20033;-73
2022/01/14 14:20:26;;;;;;;4.05;1.58;;;;;;;;;;5034905;28;20040;-76
2022/01/14 14:22:52;;;;;;;1.45;0.73;;;;;;;;;;5069615;28;20123;-74
2022/01/14 14:25:24;;;;;;;6.22;2.08;;;;;;;;;;5051207;28;20550;-74
2022/01/14 14:27:58;;;;;;;1.05;0.77;;;;;;;;;;5034987;28;20040;-74
2022/01/14 14:30:26;;;;;;;1.98;1.20;;;;;;;;;;5069432;28;20032;-73
2022/01/14 14:32:52;;;;;;;4.93;1.50;;;;;;;;;;5049431;28;20280;-74
2022/01/14 14:35:19;;;;;;;3.45;0.90;;;;;;;;;;5068217;28;20058;-74
2022/01/14 14:37:50;;;;;;;3.53;1.67;;;;;;;;;;5049900;28;20094;-75
2022/01/14 14:40:20;;;;;;;1.10;0.73;;;;;;;;;;5049695;28;20037;-74
2022/01/14 14:42:46;;;;;;;2.15;1.73;;;;;;;;;;5032631;28;20012;-75
2022/01/14 14:45:12;;;;;;;0.20;0.20;;;;;;;;;;5067385;28;20060;-73
2022/01/14 14:47:38;;;;;;;5.38;1.80;;;;;;;;;;5051898;28;20082;-73
2022/01/14 14:50:05;;;;;;;0.25;0.25;;;;;;;;;;5034960;28;20131;-73
2022/01/14 14:52:30;;;;;;;1.77;1.52;;;;;;;;;;5035175;28;20032;-74
2022/01/14 14:54:56;;;;;;;9.02;2.22;;;;;;;;;;5078366;28;20036;-74
2022/01/14 14:57:22;;;;;;;8.68;2.50;;;;;;;;;;5069927;28;20038;-75
2022/01/14 14:59:47;;;;;;;3.05;1.80;;;;;;;;;;5089852;28;20126;-74
2022/01/14 15:02:14;;;;;;;1.85;0.98;;;;;;;;;;5082654;28;20042;-73
2022/01/14 15:04:40;;;;;;;2.15;1.42;;;;;;;;;;5034274;28;20036;-74
2022/01/14 15:07:05;;;;;;;0.20;0.20;;;;;;;;;;5069163;28;20090;-75
2022/01/14 15:09:31;;;;;;;2.80;1.45;;;;;;;;;;5069055;28;20375;-75
2022/01/14 15:11:56;;;;;;;3.08;1.77;;;;;;;;;;5051047;28;20056;-77